createdAt,value
2022-12-18T00:00:17.862Z,49.70
2022-12-18T00:05:52.093Z,50.30
2022-12-18T00:10:55.775Z,49.40
2022-12-18T00:16:05.529Z,40.60
2022-12-18T00:21:11.258Z,45.20
2022-12-18T00:26:17.498Z,42.80
2022-12-18T00:31:23.653Z,44.70
2022-12-18T00:36:33.178Z,43.10
2022-12-18T00:41:54.860Z,42.80
2022-12-18T00:46:58.019Z,38.70
2022-12-18T00:52:01.546Z,47.40
2022-12-18T00:57:04.750Z,48.20
2022-12-18T01:02:08.067Z,47.20
2022-12-18T01:07:11.358Z,44.50
2022-12-18T01:12:14.503Z,50.00
2022-12-18T01:17:17.600Z,44.10
2022-12-18T01:22:20.731Z,44.30
2022-12-18T01:27:23.926Z,43.20
2022-12-18T01:32:31.811Z,45.60
2022-12-18T01:37:35.041Z,50.10
2022-12-18T01:42:38.179Z,60.10
2022-12-18T01:48:16.806Z,52.40
2022-12-18T01:53:24.920Z,49.30
2022-12-18T01:58:41.706Z,41.70
2022-12-18T02:03:46.179Z,45.90
2022-12-18T02:08:59.179Z,51.80
2022-12-18T02:14:09.765Z,48.80
2022-12-18T02:19:21.984Z,55.90
2022-12-18T02:24:44.063Z,53.90
2022-12-18T02:35:07.645Z,54.00
2022-12-18T02:40:13.668Z,45.60
2022-12-18T02:45:17.050Z,42.70
2022-12-18T02:50:42.786Z,44.00
2022-12-18T02:56:20.063Z,48.90
2022-12-18T03:01:45.688Z,64.80
2022-12-18T03:06:53.754Z,55.50
2022-12-18T03:12:26.119Z,48.00
2022-12-18T03:17:34.820Z,42.90
2022-12-18T03:22:40.212Z,44.40
2022-12-18T03:27:48.659Z,45.10
2022-12-18T03:33:04.835Z,44.30
2022-12-18T03:38:09.013Z,56.00
2022-12-18T03:43:31.660Z,53.10
2022-12-18T03:48:57.527Z,44.90
2022-12-18T03:54:05.197Z,46.10
2022-12-18T03:59:16.709Z,44.50
2022-12-18T04:04:21.437Z,38.50
2022-12-18T04:09:25.504Z,51.50
2022-12-18T04:14:29.449Z,48.40
2022-12-18T04:19:33.137Z,48.60
2022-12-18T04:24:37.152Z,42.30
2022-12-18T04:29:47.019Z,39.00
2022-12-18T04:34:51.631Z,45.30
2022-12-18T04:39:55.065Z,53.10
2022-12-18T04:45:04.416Z,46.50
2022-12-18T04:50:08.538Z,53.30
2022-12-18T04:55:11.704Z,50.50
2022-12-18T05:00:15.596Z,43.10
2022-12-18T05:05:19.083Z,48.40
2022-12-18T05:10:22.173Z,46.70
2022-12-18T05:15:30.828Z,44.00
2022-12-18T05:20:34.164Z,45.30
2022-12-18T05:25:37.360Z,59.80
2022-12-18T05:30:45.417Z,66.50
2022-12-18T05:35:57.021Z,55.00
2022-12-18T05:46:15.418Z,49.90
2022-12-18T05:51:20.934Z,48.70
2022-12-18T05:56:24.731Z,50.20
2022-12-18T06:01:28.028Z,48.70
2022-12-18T06:06:31.285Z,60.50
2022-12-18T06:11:34.595Z,67.70
2022-12-18T06:16:37.877Z,60.50
2022-12-18T06:21:41.007Z,39.60
2022-12-18T06:26:44.222Z,46.80
2022-12-18T06:31:47.400Z,48.90
2022-12-18T06:36:50.469Z,42.60
2022-12-18T06:41:53.631Z,48.20
2022-12-18T06:46:56.821Z,44.70
2022-12-18T06:51:59.892Z,69.80
2022-12-18T06:57:03.005Z,69.30
2022-12-18T07:02:06.254Z,64.70
2022-12-18T07:07:09.510Z,50.30
2022-12-18T07:12:12.706Z,52.30
2022-12-18T07:17:15.909Z,52.90
2022-12-18T07:22:19.381Z,48.60
2022-12-18T07:27:23.270Z,51.00
2022-12-18T07:32:26.467Z,54.10
2022-12-18T07:37:29.680Z,63.30
2022-12-18T07:42:32.891Z,64.20
2022-12-18T07:47:42.319Z,63.40
2022-12-18T07:52:45.595Z,49.70
2022-12-18T07:57:51.400Z,47.70
2022-12-18T08:02:56.664Z,45.20
2022-12-18T08:08:00.077Z,51.40
2022-12-18T08:13:05.213Z,65.40
2022-12-18T08:18:13.947Z,62.40
2022-12-18T08:23:17.660Z,54.20
2022-12-18T08:28:20.795Z,52.60
2022-12-18T08:33:24.692Z,53.40
2022-12-18T08:38:28.096Z,57.30
2022-12-18T08:43:50.006Z,49.90
2022-12-18T08:48:54.581Z,56.50
2022-12-18T08:53:57.748Z,72.90
2022-12-18T08:59:00.977Z,69.50
2022-12-18T09:04:04.748Z,64.10
2022-12-18T09:09:11.725Z,62.20
2022-12-18T09:14:14.875Z,62.50
2022-12-18T09:19:18.000Z,62.00
2022-12-18T09:24:23.980Z,67.10
2022-12-18T09:29:27.074Z,68.40
2022-12-18T09:34:30.216Z,68.30
2022-12-18T09:39:33.318Z,70.40
2022-12-18T09:44:50.015Z,73.30
2022-12-18T09:50:02.138Z,73.20
2022-12-18T10:00:27.207Z,70.50
2022-12-18T10:05:48.806Z,62.10
2022-12-18T10:11:02.801Z,66.30
2022-12-18T10:16:09.010Z,66.80
2022-12-18T10:21:20.335Z,63.10
2022-12-18T10:26:24.301Z,70.30
2022-12-18T10:31:27.418Z,85.70
2022-12-18T10:36:30.689Z,64.60
2022-12-18T10:41:33.945Z,69.00
2022-12-18T10:46:38.032Z,65.60
2022-12-18T10:51:41.368Z,67.30
2022-12-18T10:56:45.414Z,62.80
2022-12-18T11:01:59.723Z,62.60
2022-12-18T11:07:06.160Z,62.60
2022-12-18T11:12:21.316Z,65.70
2022-12-18T11:17:36.643Z,68.40
2022-12-18T11:22:41.379Z,60.80
2022-12-18T11:28:46.670Z,65.10
2022-12-18T11:34:26.772Z,62.00
2022-12-18T11:39:33.192Z,58.90
2022-12-18T11:44:51.841Z,61.30
2022-12-18T11:49:58.248Z,61.80
2022-12-18T11:55:06.255Z,61.90
2022-12-18T12:00:19.964Z,62.10
2022-12-18T12:05:51.164Z,57.10
2022-12-18T12:11:15.923Z,59.90
2022-12-18T12:16:23.434Z,62.50
2022-12-18T12:21:38.605Z,64.40
2022-12-18T12:27:24.134Z,65.40
2022-12-18T12:32:55.396Z,70.60
2022-12-18T12:38:28.338Z,65.90
2022-12-18T12:49:02.170Z,56.30
2022-12-18T12:54:13.825Z,61.10
2022-12-18T12:59:31.809Z,61.80
2022-12-18T13:05:15.931Z,60.70
2022-12-18T13:10:25.762Z,64.40
2022-12-18T13:15:47.265Z,62.60
2022-12-18T13:26:24.706Z,75.00
2022-12-18T13:31:41.785Z,66.70
2022-12-18T13:36:45.558Z,69.40
2022-12-18T13:42:31.890Z,66.70
2022-12-18T13:47:39.202Z,76.40
2022-12-18T13:52:44.755Z,65.20
2022-12-18T13:57:47.919Z,59.70
2022-12-18T14:02:59.232Z,56.20
2022-12-18T14:08:19.056Z,64.10
2022-12-18T14:13:31.641Z,67.70
2022-12-18T14:18:53.520Z,77.60
2022-12-18T14:24:23.050Z,79.70
2022-12-18T14:29:28.063Z,63.30
2022-12-18T14:34:31.293Z,66.70
2022-12-18T14:39:34.412Z,63.30
2022-12-18T14:44:50.644Z,58.20
2022-12-18T14:50:01.246Z,63.40
2022-12-18T14:55:04.729Z,68.30
2022-12-18T15:00:17.048Z,61.00
2022-12-18T15:05:26.486Z,73.40
2022-12-18T15:10:34.390Z,70.40
2022-12-18T15:15:37.576Z,56.90
2022-12-18T15:20:42.918Z,56.00
2022-12-18T15:25:48.067Z,60.10
2022-12-18T15:31:12.648Z,58.00
2022-12-18T15:36:21.371Z,53.30
2022-12-18T15:41:33.653Z,49.00
2022-12-18T15:46:50.742Z,61.70
2022-12-18T15:51:57.805Z,61.30
2022-12-18T15:57:19.673Z,57.60
2022-12-18T16:02:24.261Z,61.90
2022-12-18T16:07:30.607Z,55.30
2022-12-18T16:12:34.534Z,61.40
2022-12-18T16:17:39.304Z,57.80
2022-12-18T16:22:45.891Z,66.70
2022-12-18T16:28:07.926Z,56.50
2022-12-18T16:33:12.176Z,72.40
2022-12-18T16:38:15.554Z,66.30
2022-12-18T16:43:18.698Z,62.50
2022-12-18T16:48:23.069Z,58.70
2022-12-18T16:53:26.242Z,59.10
2022-12-18T16:58:29.910Z,55.80
2022-12-18T17:03:33.114Z,57.60
2022-12-18T17:08:36.271Z,58.60
2022-12-18T17:13:40.024Z,67.60
2022-12-18T17:18:43.916Z,56.10
2022-12-18T17:23:47.326Z,62.60
2022-12-18T17:28:50.523Z,60.90
2022-12-18T17:33:53.929Z,66.40
2022-12-18T17:39:00.288Z,53.80
2022-12-18T17:44:05.959Z,50.40
2022-12-18T17:49:10.883Z,47.30
2022-12-18T17:54:16.011Z,49.00
2022-12-18T17:59:19.200Z,53.40
2022-12-18T18:04:22.334Z,79.70
2022-12-18T18:09:25.556Z,73.80
2022-12-18T18:14:28.830Z,70.80
2022-12-18T18:19:33.675Z,68.50
2022-12-18T18:24:36.923Z,57.60
2022-12-18T18:29:40.315Z,54.90
2022-12-18T18:34:43.470Z,61.70
2022-12-18T18:39:46.688Z,81.80
2022-12-18T18:44:49.802Z,69.50
2022-12-18T18:49:53.013Z,59.50
2022-12-18T18:55:12.085Z,137.00
2022-12-18T19:00:16.843Z,58.00
2022-12-18T19:05:20.417Z,57.80
2022-12-18T19:10:23.745Z,56.10
2022-12-18T19:15:26.945Z,66.90
2022-12-18T19:20:30.526Z,64.10
2022-12-18T19:25:38.562Z,62.10
2022-12-18T19:30:45.078Z,60.90
2022-12-18T19:35:48.588Z,63.60
2022-12-18T19:40:52.607Z,57.00
2022-12-18T19:45:56.127Z,56.30
2022-12-18T19:51:03.896Z,53.40
2022-12-18T19:56:09.047Z,55.30
2022-12-18T20:01:16.227Z,55.70
2022-12-18T20:06:29.283Z,69.10
2022-12-18T20:11:38.865Z,62.20
2022-12-18T20:16:45.817Z,61.40
2022-12-18T20:21:49.569Z,51.80
2022-12-18T20:26:52.834Z,48.50
2022-12-18T20:31:56.202Z,49.00
2022-12-18T20:36:59.403Z,48.70
2022-12-18T20:42:03.567Z,45.40
2022-12-18T20:47:08.578Z,56.00
2022-12-18T20:52:12.967Z,57.50
2022-12-18T20:57:16.195Z,51.20
2022-12-18T21:02:19.548Z,47.10
2022-12-18T21:07:23.089Z,45.20
2022-12-18T21:12:40.397Z,43.00
2022-12-18T21:17:48.148Z,47.00
2022-12-18T21:22:51.618Z,49.00
2022-12-18T21:27:57.224Z,63.50
2022-12-18T21:33:00.646Z,59.60
2022-12-18T21:38:05.765Z,56.40
2022-12-18T21:43:29.053Z,51.00
2022-12-18T21:48:32.321Z,48.00
2022-12-18T21:53:35.474Z,44.20
2022-12-18T21:58:38.592Z,41.50
2022-12-18T22:03:58.896Z,44.50
2022-12-18T22:09:02.160Z,60.00
2022-12-18T22:14:05.392Z,64.50
2022-12-18T22:19:09.949Z,56.20
2022-12-18T22:24:15.104Z,47.50
2022-12-18T22:29:42.163Z,41.20
2022-12-18T22:34:45.396Z,37.90
2022-12-18T22:39:48.539Z,41.50
2022-12-18T22:44:51.848Z,37.00
2022-12-18T22:49:54.950Z,44.90
2022-12-18T22:54:58.168Z,48.20
2022-12-18T23:00:01.310Z,45.50
2022-12-18T23:05:07.827Z,44.30
2022-12-18T23:10:11.172Z,42.80
2022-12-18T23:15:14.367Z,35.90
2022-12-18T23:20:20.112Z,38.30
2022-12-18T23:25:23.708Z,31.90
2022-12-18T23:30:26.857Z,33.90
2022-12-18T23:35:30.692Z,32.20
2022-12-18T23:40:33.948Z,29.40
2022-12-18T23:45:38.354Z,37.70
2022-12-18T23:50:41.472Z,39.40
2022-12-18T23:55:45.495Z,33.00
